Time;durP1;ratioP1;P1;durP2;ratioP2;P2;SDS_P1;SDS_P2;PMS_P1;PMS_P2;Temp;Humidity;BMP_temperature;BMP_pressure;BME280_temperature;BME280_humidity;BME280_pressure;Samples;Min_cycle;Max_cycle;Signal;HPM_P1;HPM_P2
2022/06/24 00:00:37;;;;;;;3.30;1.60;;;;;15.42;97342.00;;;;110488;1254;41500;-65
2022/06/24 00:03:07;;;;;;;3.80;1.80;;;;;15.40;97346.00;;;;110521;1253;41138;-65
2022/06/24 00:05:37;;;;;;;3.20;1.50;;;;;15.40;97347.40;;;;110484;1253;41163;-65
2022/06/24 00:08:08;;;;;;;3.20;1.60;;;;;15.30;97350.20;;;;110487;1253;41709;-66
2022/06/24 00:10:39;;;;;;;3.50;1.60;;;;;15.30;97349.40;;;;110619;1253;41931;-66
2022/06/24 00:13:09;;;;;;;2.60;1.50;;;;;15.30;97351.60;;;;110717;1253;41718;-65
2022/06/24 00:15:39;;;;;;;3.40;1.80;;;;;15.26;97351.20;;;;110545;1253;41492;-66
2022/06/24 00:18:19;;;;;;;3.00;1.60;;;;;15.20;97348.60;;;;110548;1253;41628;-65
2022/06/24 00:20:50;;;;;;;3.80;1.70;;;;;15.20;97350.80;;;;110483;1253;41257;-65
2022/06/24 00:23:20;;;;;;;;;;;;;15.18;97350.80;;;;110375;1254;41176;-65
2022/06/24 00:25:50;;;;;;;4.00;2.00;;;;;15.00;97352.20;;;;110450;1256;42233;-66
2022/06/24 00:28:25;;;;;;;4.30;1.80;;;;;15.00;97357.00;;;;110514;1254;41160;-66
2022/06/24 00:30:56;;;;;;;5.80;2.10;;;;;15.00;97350.80;;;;110429;1256;42520;-65
2022/06/24 00:33:35;;;;;;;3.60;1.70;;;;;14.90;97350.80;;;;110449;1254;41580;-65
2022/06/24 00:36:07;;;;;;;3.80;1.70;;;;;14.90;97355.00;;;;110502;1254;42035;-65
2022/06/24 00:38:37;;;;;;;4.50;1.80;;;;;14.90;97354.80;;;;110328;1254;41401;-65
2022/06/24 00:41:14;;;;;;;2.80;1.60;;;;;14.90;97352.60;;;;110514;1256;41943;-66
2022/06/24 00:43:46;;;;;;;3.00;1.60;;;;;14.86;97355.60;;;;110620;1253;41891;-66
2022/06/24 00:46:23;;;;;;;2.80;1.60;;;;;14.80;97350.20;;;;110433;1254;41306;-65
2022/06/24 00:48:58;;;;;;;4.40;2.00;;;;;14.80;97350.00;;;;110308;1253;41268;-66
2022/06/24 00:51:37;;;;;;;3.90;1.70;;;;;14.70;97346.00;;;;110520;1253;42423;-65
2022/06/24 00:54:11;;;;;;;4.30;1.90;;;;;14.70;97343.40;;;;110534;1254;41774;-66
2022/06/24 00:56:42;;;;;;;6.80;2.20;;;;;14.70;97347.40;;;;110485;1253;41173;-65
2022/06/24 00:59:15;;;;;;;5.50;2.00;;;;;14.70;97344.80;;;;110542;1253;41625;-65
2022/06/24 01:01:50;;;;;;;4.40;1.90;;;;;14.58;97345.80;;;;110660;1253;41263;-65
2022/06/24 01:04:32;;;;;;;5.40;1.90;;;;;14.50;97347.80;;;;110712;1253;41176;-66
2022/06/24 01:07:03;;;;;;;6.10;2.00;;;;;14.40;97352.80;;;;110531;1254;42373;-65
2022/06/24 01:09:33;;;;;;;3.90;1.90;;;;;14.30;97344.80;;;;110637;1253;42409;-65
2022/06/24 01:12:04;;;;;;;;;;;;;14.30;97337.80;;;;110493;1256;41174;-65
2022/06/24 01:14:34;;;;;;;;;;;;;14.20;97335.80;;;;110403;1256;41145;-65
2022/06/24 01:17:09;;;;;;;2.90;1.70;;;;;14.10;97333.60;;;;110687;1253;41147;-65
2022/06/24 01:19:39;;;;;;;3.00;1.80;;;;;14.10;97329.40;;;;110638;1253;41820;-65
2022/06/24 01:22:09;;;;;;;7.50;2.50;;;;;14.00;97333.40;;;;110583;1253;41306;-65
2022/06/24 01:24:40;;;;;;;6.30;2.10;;;;;14.00;97332.40;;;;110365;1256;41161;-66
2022/06/24 01:27:12;;;;;;;5.70;2.00;;;;;14.00;97332.80;;;;110522;1255;41182;-65
2022/06/24 01:29:42;;;;;;;3.30;1.70;;;;;13.90;97332.40;;;;110433;1255;41157;-65
2022/06/24 01:32:13;;;;;;;4.90;1.90;;;;;13.90;97332.60;;;;110347;1256;41191;-66
2022/06/24 01:34:43;;;;;;;6.70;2.20;;;;;13.80;97333.60;;;;110421;1256;41134;-67
2022/06/24 01:37:13;;;;;;;3.50;1.80;;;;;13.80;97332.00;;;;110325;1256;41168;-66
2022/06/24 01:39:44;;;;;;;4.40;1.90;;;;;13.80;97331.40;;;;110506;1254;41161;-64
2022/06/24 01:42:14;;;;;;;5.60;2.00;;;;;13.82;97330.20;;;;110402;1254;41134;-65
2022/06/24 01:44:43;;;;;;;5.00;2.10;;;;;13.90;97326.40;;;;110615;1253;41328;-66
2022/06/24 01:47:13;;;;;;;6.40;2.20;;;;;13.84;97333.80;;;;110516;1256;41140;-66
2022/06/24 01:49:45;;;;;;;3.90;2.00;;;;;13.42;97337.00;;;;110614;1253;41149;-65
2022/06/24 01:52:17;;;;;;;4.00;1.80;;;;;13.34;97332.40;;;;110539;1253;41837;-65
2022/06/24 01:54:47;;;;;;;5.60;2.20;;;;;13.14;97337.20;;;;110385;1253;41131;-65
2022/06/24 01:57:17;;;;;;;4.70;2.10;;;;;13.10;97337.40;;;;110498;1253;41267;-65
2022/06/24 01:59:51;;;;;;;4.90;2.40;;;;;13.00;97339.60;;;;110546;1253;41283;-65
2022/06/24 02:02:21;;;;;;;6.50;2.00;;;;;13.00;97342.80;;;;110574;1251;41150;-65
2022/06/24 02:04:54;;;;;;;5.40;2.10;;;;;13.00;97344.20;;;;110386;1254;41592;-65
2022/06/24 02:07:24;;;;;;;6.40;2.10;;;;;12.96;97342.20;;;;110635;1254;41143;-65
2022/06/24 02:15:32;;;;;;;5.00;2.00;;;;;13.10;97345.00;;;;110619;1253;41697;-65
2022/06/24 02:18:02;;;;;;;3.50;1.80;;;;;13.10;97337.40;;;;110527;1254;41212;-65
2022/06/24 02:20:35;;;;;;;3.60;1.70;;;;;13.10;97338.80;;;;110484;1253;41275;-65
2022/06/24 02:23:09;;;;;;;4.20;1.70;;;;;13.10;97337.60;;;;110333;1254;41183;-64
2022/06/24 02:25:39;;;;;;;3.00;1.70;;;;;13.02;97337.80;;;;110526;1254;41164;-67
2022/06/24 02:28:10;;;;;;;4.40;1.90;;;;;13.00;97342.60;;;;110524;1254;41267;-66
2022/06/24 02:30:41;;;;;;;4.70;2.10;;;;;13.00;97336.40;;;;110511;1254;41179;-65
2022/06/24 02:33:11;;;;;;;3.00;1.70;;;;;12.94;97339.20;;;;110582;1253;41952;-65
2022/06/24 02:35:42;;;;;;;2.70;1.50;;;;;12.90;97335.00;;;;110537;1253;41611;-65
2022/06/24 02:38:12;;;;;;;3.60;1.80;;;;;12.90;97341.00;;;;110516;1254;42444;-65
2022/06/24 02:40:45;;;;;;;;;;;;;12.90;97342.20;;;;110577;1253;41252;-65
2022/06/24 02:43:20;;;;;;;3.30;1.70;;;;;12.80;97348.60;;;;110633;1253;41258;-65
2022/06/24 02:45:52;;;;;;;7.50;2.20;;;;;12.80;97352.00;;;;110685;1253;41254;-65
2022/06/24 02:48:22;;;;;;;5.20;2.00;;;;;12.80;97356.80;;;;110496;1254;41166;-65
2022/06/24 02:50:54;;;;;;;5.30;2.20;;;;;12.80;97358.20;;;;110705;1253;42349;-65
2022/06/24 02:53:25;;;;;;;7.30;2.20;;;;;12.84;97356.40;;;;110606;1252;41203;-65
2022/06/24 02:55:57;;;;;;;5.20;2.20;;;;;12.90;97356.80;;;;110662;1253;41211;-67
2022/06/24 02:58:28;;;;;;;7.20;2.40;;;;;12.90;97356.40;;;;110389;1255;41738;-68
2022/06/24 03:00:59;;;;;;;3.90;1.70;;;;;12.90;97362.60;;;;110597;1254;41619;-65
2022/06/24 03:03:29;;;;;;;4.50;1.90;;;;;12.88;97360.60;;;;110390;1254;41159;-65
2022/06/24 03:05:59;;;;;;;3.70;1.90;;;;;12.86;97358.60;;;;110297;1256;41994;-65
2022/06/24 03:08:30;;;;;;;4.70;2.10;;;;;12.80;97355.40;;;;110420;1254;41262;-64
2022/06/24 03:11:01;;;;;;;9.70;2.30;;;;;12.90;97355.00;;;;110524;1254;41161;-65
2022/06/24 03:13:31;;;;;;;4.60;2.00;;;;;12.90;97356.60;;;;110487;1255;42248;-65
2022/06/24 03:16:02;;;;;;;5.60;2.50;;;;;12.98;97357.80;;;;110519;1254;42426;-66
2022/06/24 03:18:33;;;;;;;6.40;1.90;;;;;13.00;97361.20;;;;110517;1255;42495;-66
2022/06/24 03:21:06;;;;;;;4.70;2.00;;;;;13.00;97370.40;;;;110557;1253;41887;-65
2022/06/24 03:23:36;;;;;;;7.50;2.20;;;;;13.00;97379.80;;;;110537;1254;41196;-66
2022/06/24 03:26:07;;;;;;;7.00;2.10;;;;;13.00;97373.00;;;;110397;1254;41421;-64
2022/06/24 03:28:38;;;;;;;5.00;2.20;;;;;13.10;97375.20;;;;110465;1254;41303;-65
2022/06/24 03:31:12;;;;;;;5.10;2.30;;;;;13.20;97376.00;;;;110587;1254;41251;-64
2022/06/24 03:33:43;;;;;;;4.20;2.00;;;;;13.28;97378.20;;;;110545;1254;41275;-65
2022/06/24 03:36:13;;;;;;;4.60;2.30;;;;;13.30;97375.40;;;;110316;1254;41855;-64
2022/06/24 03:38:43;;;;;;;5.10;2.30;;;;;13.40;97372.60;;;;110500;1254;40735;-65
2022/06/24 03:41:13;;;;;;;7.80;2.20;;;;;13.40;97373.60;;;;110483;1254;41200;-65
2022/06/24 03:43:43;;;;;;;6.10;2.50;;;;;13.30;97378.80;;;;110595;1253;41731;-65
2022/06/24 03:46:13;;;;;;;7.70;2.40;;;;;13.30;97380.40;;;;110454;1255;42083;-65
2022/06/24 03:48:43;;;;;;;4.80;2.00;;;;;13.40;97382.20;;;;110718;1254;41480;-65
2022/06/24 03:51:13;;;;;;;4.60;1.90;;;;;13.42;97383.40;;;;110589;1254;41154;-65
2022/06/24 03:53:44;;;;;;;4.70;2.10;;;;;13.50;97383.20;;;;110542;1253;41140;-65
2022/06/24 03:56:14;;;;;;;5.10;1.90;;;;;13.50;97389.20;;;;110510;1253;41219;-65
2022/06/24 03:58:44;;;;;;;4.80;2.10;;;;;13.60;97390.80;;;;110436;1254;41157;-65
2022/06/24 04:01:14;;;;;;;6.50;2.40;;;;;13.60;97392.40;;;;110461;1253;41251;-64
2022/06/24 04:03:44;;;;;;;5.00;2.10;;;;;13.70;97389.40;;;;110507;1253;42025;-64
2022/06/24 04:06:13;;;;;;;4.50;2.00;;;;;13.74;97391.40;;;;110499;1254;41412;-65
2022/06/24 04:08:43;;;;;;;6.40;2.50;;;;;13.80;97393.00;;;;110575;1253;41491;-66
2022/06/24 04:11:14;;;;;;;4.20;2.00;;;;;13.90;97394.00;;;;110651;1253;41152;-65
2022/06/24 04:13:44;;;;;;;6.80;2.60;;;;;14.02;97394.40;;;;110546;1253;41155;-65
2022/06/24 04:16:13;;;;;;;4.90;2.10;;;;;14.18;97395.60;;;;110433;1254;41603;-65
2022/06/24 04:18:43;;;;;;;6.90;2.50;;;;;14.30;97390.80;;;;110540;1254;41179;-65
2022/06/24 04:21:14;;;;;;;4.60;2.00;;;;;14.46;97393.00;;;;110330;1254;41270;-65
2022/06/24 04:23:44;;;;;;;;;;;;;14.70;97386.60;;;;110669;1252;41763;-65
2022/06/24 04:26:14;;;;;;;5.50;2.00;;;;;15.76;97368.40;;;;110610;1252;41462;-65
2022/06/24 04:28:43;;;;;;;12.50;2.20;;;;;17.42;97358.60;;;;110486;1254;41276;-65
2022/06/24 04:31:13;;;;;;;9.10;2.40;;;;;18.94;97357.40;;;;110447;1256;41601;-65
2022/06/24 04:33:42;;;;;;;4.50;2.00;;;;;20.30;97359.60;;;;110432;1254;42373;-64
2022/06/24 04:36:13;;;;;;;4.30;2.00;;;;;21.52;97358.60;;;;110490;1254;41182;-66
2022/06/24 04:38:43;;;;;;;4.60;2.00;;;;;22.52;97361.60;;;;110406;1254;41375;-65
2022/06/24 04:41:14;;;;;;;4.50;2.00;;;;;23.40;97358.60;;;;110520;1254;41151;-65
2022/06/24 04:43:44;;;;;;;6.40;2.40;;;;;24.10;97361.20;;;;110270;1257;41394;-65
2022/06/24 04:46:13;;;;;;;5.70;2.10;;;;;24.72;97359.80;;;;110339;1254;42374;-66
2022/06/24 04:48:42;;;;;;;6.30;2.00;;;;;25.34;97353.60;;;;110484;1254;41184;-66
2022/06/24 04:51:12;;;;;;;4.30;2.00;;;;;25.90;97355.60;;;;110523;1254;41157;-66
2022/06/24 04:53:42;;;;;;;7.40;2.20;;;;;26.30;97352.60;;;;110408;1254;42351;-66
2022/06/24 04:56:11;;;;;;;6.90;2.30;;;;;26.80;97346.40;;;;110474;1254;42495;-66
2022/06/24 04:58:41;;;;;;;7.80;2.30;;;;;26.94;97344.80;;;;110455;1254;41645;-66
2022/06/24 05:01:10;;;;;;;6.40;2.30;;;;;26.98;97346.20;;;;110512;1251;41604;-68
2022/06/24 05:03:40;;;;;;;8.10;2.30;;;;;27.20;97348.20;;;;110413;1254;42085;-67
2022/06/24 05:06:09;;;;;;;9.30;2.50;;;;;27.52;97350.20;;;;110478;1255;41369;-66
2022/06/24 05:08:40;;;;;;;12.70;2.30;;;;;27.96;97346.20;;;;110424;1254;41181;-66
2022/06/24 05:11:09;;;;;;;6.10;2.00;;;;;28.50;97346.20;;;;110389;1257;41637;-66
2022/06/24 05:13:38;;;;;;;6.20;2.30;;;;;29.04;97343.20;;;;110485;1254;41134;-66
2022/06/24 05:16:08;;;;;;;8.30;2.30;;;;;29.56;97340.60;;;;110346;1254;41153;-66
2022/06/24 05:18:58;;;;;;;10.30;2.10;;;;;30.00;97343.60;;;;110326;1254;41262;-66
2022/06/24 05:21:27;;;;;;;6.20;1.80;;;;;30.46;97342.00;;;;110457;1254;41588;-67
2022/06/24 05:23:56;;;;;;;4.50;1.90;;;;;30.38;97337.20;;;;110574;1254;42401;-67
2022/06/24 05:26:25;;;;;;;5.50;1.80;;;;;29.24;97345.20;;;;110568;1254;41164;-65
2022/06/24 05:28:55;;;;;;;5.00;2.00;;;;;28.60;97359.20;;;;110715;1252;41146;-67
2022/06/24 05:31:24;;;;;;;6.70;1.60;;;;;27.68;97384.00;;;;110387;1254;42247;-67
2022/06/24 05:33:54;;;;;;;3.70;1.70;;;;;26.70;97388.20;;;;110559;1253;41660;-66
2022/06/24 05:36:23;;;;;;;5.80;1.40;;;;;25.76;97392.80;;;;110490;1254;41264;-66
2022/06/24 05:38:53;;;;;;;2.40;1.50;;;;;25.18;97391.80;;;;110462;1254;41257;-65
2022/06/24 05:41:23;;;;;;;2.20;1.30;;;;;24.82;97393.60;;;;110532;1254;41900;-66
2022/06/24 05:43:53;;;;;;;2.60;1.40;;;;;24.76;97394.20;;;;110581;1253;41169;-67
2022/06/24 05:46:28;;;;;;;3.70;1.60;;;;;24.62;97397.80;;;;110623;1253;41268;-66
2022/06/24 05:48:57;;;;;;;2.30;1.40;;;;;24.20;97403.40;;;;110497;1254;41728;-66
2022/06/24 05:51:28;;;;;;;3.60;1.70;;;;;23.90;97407.00;;;;110382;1254;41140;-65
2022/06/24 05:56:46;;;;;;;3.80;1.80;;;;;23.48;97412.60;;;;110505;1254;41269;-66
2022/06/24 05:59:15;;;;;;;4.70;1.70;;;;;23.52;97396.40;;;;110525;1254;41199;-67
2022/06/24 06:01:44;;;;;;;7.50;1.90;;;;;24.42;97378.40;;;;110544;1254;41167;-66
2022/06/24 06:04:13;;;;;;;4.70;1.70;;;;;25.10;97374.80;;;;110545;1254;42539;-67
2022/06/24 06:06:42;;;;;;;5.30;2.00;;;;;25.76;97376.20;;;;110658;1253;41551;-67
2022/06/24 06:09:12;;;;;;;6.30;2.30;;;;;26.64;97379.00;;;;110466;1254;41965;-67
2022/06/24 06:11:41;;;;;;;4.60;1.80;;;;;27.40;97376.40;;;;110395;1254;41517;-67
2022/06/24 06:14:10;;;;;;;8.60;1.90;;;;;27.60;97375.60;;;;110415;1254;42384;-66
2022/06/24 06:16:39;;;;;;;4.60;1.80;;;;;27.90;97372.80;;;;110352;1255;41292;-68
2022/06/24 06:19:08;;;;;;;3.80;1.80;;;;;28.60;97373.80;;;;110519;1255;41171;-65
2022/06/24 06:21:38;;;;;;;4.30;1.70;;;;;29.46;97372.20;;;;110472;1256;41571;-65
2022/06/24 06:24:07;;;;;;;4.20;1.70;;;;;29.66;97372.60;;;;110499;1254;41164;-66
2022/06/24 06:26:37;;;;;;;5.60;1.90;;;;;29.44;97375.80;;;;110550;1254;41134;-68
2022/06/24 06:29:11;;;;;;;5.00;1.70;;;;;29.36;97376.00;;;;110401;1256;41169;-67
2022/06/24 06:31:40;;;;;;;4.50;1.60;;;;;28.90;97373.00;;;;110412;1254;41168;-66
2022/06/24 06:34:10;;;;;;;3.20;1.60;;;;;29.58;97374.20;;;;110497;1254;41268;-66
2022/06/24 06:36:39;;;;;;;5.50;1.80;;;;;30.30;97372.40;;;;110490;1254;41737;-66
2022/06/24 06:39:08;;;;;;;3.90;1.60;;;;;30.70;97373.00;;;;110398;1254;41626;-66
2022/06/24 06:41:38;;;;;;;4.30;1.90;;;;;30.86;97374.80;;;;110444;1257;41159;-67
2022/06/24 06:44:07;;;;;;;3.20;1.60;;;;;30.70;97372.20;;;;110512;1254;41703;-66
2022/06/24 06:46:36;;;;;;;3.30;1.70;;;;;30.40;97380.00;;;;110518;1255;41923;-65
2022/06/24 06:49:05;;;;;;;4.10;1.70;;;;;30.90;97378.20;;;;110438;1254;42375;-66
2022/06/24 06:51:35;;;;;;;3.60;1.50;;;;;31.56;97376.40;;;;110520;1254;41191;-65
2022/06/24 06:54:04;;;;;;;5.80;1.70;;;;;31.82;97379.00;;;;110465;1254;41254;-66
2022/06/24 06:56:33;;;;;;;4.00;1.70;;;;;32.10;97384.20;;;;110431;1256;41231;-67
2022/06/24 06:59:02;;;;;;;3.90;1.50;;;;;32.00;97388.20;;;;110468;1254;42023;-67
2022/06/24 07:01:31;;;;;;;3.10;1.50;;;;;31.96;97388.00;;;;110521;1254;41656;-66
2022/06/24 07:04:01;;;;;;;4.30;1.80;;;;;32.28;97391.40;;;;110477;1254;41158;-66
2022/06/24 07:06:30;;;;;;;3.90;1.50;;;;;31.66;97388.60;;;;110236;1254;41155;-67
2022/06/24 07:08:59;;;;;;;3.10;1.50;;;;;31.12;97393.20;;;;110326;1254;41268;-67
2022/06/24 07:11:28;;;;;;;3.60;1.60;;;;;31.10;97392.00;;;;110506;1254;42376;-68
2022/06/24 07:13:57;;;;;;;4.60;1.60;;;;;30.48;97394.40;;;;110451;1256;41195;-67
2022/06/24 07:16:27;;;;;;;2.80;1.40;;;;;30.28;97399.60;;;;110469;1255;42368;-66
2022/06/24 07:18:56;;;;;;;7.60;1.70;;;;;29.88;97398.80;;;;110391;1254;41152;-68
2022/06/24 07:21:25;;;;;;;3.40;1.60;;;;;29.20;97398.60;;;;110536;1254;41157;-68
2022/06/24 07:23:54;;;;;;;4.80;1.80;;;;;28.58;97396.80;;;;110513;1254;42449;-67
2022/06/24 07:26:24;;;;;;;4.20;1.80;;;;;27.64;97394.60;;;;110440;1254;41572;-67
2022/06/24 07:28:53;;;;;;;5.10;1.70;;;;;27.30;97401.60;;;;109898;1254;503783;-66
2022/06/24 07:31:22;;;;;;;4.40;1.80;;;;;27.30;97402.60;;;;110458;1254;41490;-67
2022/06/24 07:33:52;;;;;;;6.30;1.90;;;;;27.10;97403.40;;;;110486;1254;41521;-67
2022/06/24 07:36:21;;;;;;;4.20;1.60;;;;;26.86;97401.80;;;;110504;1254;41603;-67
2022/06/24 07:38:50;;;;;;;11.10;2.00;;;;;26.86;97396.00;;;;110490;1253;41463;-66
2022/06/24 07:41:20;;;;;;;5.00;1.60;;;;;26.32;97396.40;;;;110471;1254;41296;-66
2022/06/24 07:43:49;;;;;;;2.80;1.60;;;;;25.82;97393.80;;;;110548;1254;41667;-66
2022/06/24 07:46:18;;;;;;;7.00;1.70;;;;;26.00;97392.60;;;;110518;1254;42388;-66
2022/06/24 07:48:48;;;;;;;2.80;1.40;;;;;26.32;97389.80;;;;110592;1253;41618;-67
2022/06/24 07:51:19;;;;;;;2.90;1.50;;;;;26.60;97389.00;;;;110492;1254;41956;-66
2022/06/24 07:53:48;;;;;;;5.00;1.70;;;;;26.80;97394.00;;;;110470;1254;41528;-67
2022/06/24 07:59:06;;;;;;;3.50;1.70;;;;;27.10;97379.40;;;;110558;1253;41898;-68
2022/06/24 08:01:35;;;;;;;3.50;1.40;;;;;27.14;97380.40;;;;110585;1253;41707;-67
2022/06/24 08:04:07;;;;;;;3.90;1.50;;;;;27.20;97381.00;;;;110584;1253;41156;-67
2022/06/24 08:06:39;;;;;;;2.30;1.30;;;;;27.50;97382.00;;;;110509;1254;42135;-67
2022/06/24 08:09:09;;;;;;;3.90;1.50;;;;;27.70;97377.20;;;;110610;1253;41161;-67
2022/06/24 08:11:38;;;;;;;7.10;1.70;;;;;27.80;97374.60;;;;110645;1253;41257;-67
2022/06/24 08:14:07;;;;;;;2.30;1.30;;;;;27.68;97374.40;;;;110600;1253;41147;-67
2022/06/24 08:16:37;;;;;;;3.00;1.50;;;;;27.80;97377.00;;;;110610;1253;41176;-67
2022/06/24 08:19:11;;;;;;;3.50;1.50;;;;;27.70;97377.00;;;;110542;1253;41139;-68
2022/06/24 08:21:40;;;;;;;2.90;1.50;;;;;27.76;97373.40;;;;110582;1253;41268;-68
2022/06/24 08:24:09;;;;;;;3.10;1.40;;;;;27.90;97373.60;;;;110558;1255;41908;-68
2022/06/24 08:26:39;;;;;;;3.30;1.60;;;;;28.00;97369.80;;;;110629;1253;42405;-68
2022/06/24 08:29:10;;;;;;;2.50;1.40;;;;;28.10;97368.80;;;;110469;1254;41173;-67
2022/06/24 08:31:40;;;;;;;2.80;1.30;;;;;28.20;97369.20;;;;110403;1255;41622;-68
2022/06/24 08:34:10;;;;;;;1.40;1.20;;;;;28.30;97368.80;;;;110601;1253;41195;-68
2022/06/24 08:36:39;;;;;;;1.60;1.20;;;;;28.40;97364.60;;;;110607;1254;42537;-67
2022/06/24 08:39:08;;;;;;;1.40;1.10;;;;;28.30;97368.40;;;;110616;1253;41269;-68
2022/06/24 08:41:38;;;;;;;1.60;1.20;;;;;28.40;97364.20;;;;110496;1253;41151;-67
2022/06/24 08:44:14;;;;;;;1.90;1.30;;;;;28.60;97366.80;;;;110401;1254;42512;-67
2022/06/24 08:46:43;;;;;;;1.90;1.30;;;;;28.74;97362.00;;;;110541;1253;41208;-67
2022/06/24 08:49:12;;;;;;;5.30;1.30;;;;;28.80;97360.40;;;;110494;1254;42495;-66
2022/06/24 08:51:42;;;;;;;2.70;1.30;;;;;28.52;97361.80;;;;110499;1253;41251;-67
2022/06/24 08:54:12;;;;;;;1.60;1.20;;;;;28.88;97361.00;;;;110507;1254;41478;-68
2022/06/24 08:56:53;;;;;;;2.70;1.30;;;;;29.10;97362.80;;;;110656;1253;41614;-67
2022/06/24 08:59:23;;;;;;;1.30;1.10;;;;;29.30;97349.20;;;;110683;1253;41268;-67
2022/06/24 09:01:52;;;;;;;1.90;1.30;;;;;29.08;97348.20;;;;110708;1253;41144;-69
2022/06/24 09:04:23;;;;;;;1.30;1.20;;;;;28.58;97351.20;;;;110524;1254;42717;-68
2022/06/24 09:06:52;;;;;;;2.10;1.30;;;;;28.90;97352.00;;;;110542;1253;41159;-68
2022/06/24 09:09:26;;;;;;;3.20;1.40;;;;;29.28;97350.00;;;;110377;1254;41706;-67
2022/06/24 09:11:57;;;;;;;1.20;1.10;;;;;29.36;97348.80;;;;110523;1254;41604;-68
2022/06/24 09:14:47;;;;;;;2.40;1.30;;;;;29.70;97343.80;;;;110538;1251;41158;-68
2022/06/24 09:17:16;;;;;;;3.60;1.30;;;;;30.10;97339.60;;;;110483;1254;41181;-68
2022/06/24 09:19:45;;;;;;;1.70;1.20;;;;;30.36;97337.00;;;;110521;1254;42500;-67
2022/06/24 09:22:27;;;;;;;3.10;1.30;;;;;30.74;97338.20;;;;110371;1254;41610;-67
2022/06/24 09:24:59;;;;;;;4.20;1.40;;;;;31.30;97337.20;;;;110559;1253;42409;-67
2022/06/24 09:27:28;;;;;;;2.40;1.30;;;;;31.66;97334.60;;;;110492;1254;42840;-67
2022/06/24 09:29:57;;;;;;;2.90;1.20;;;;;32.20;97332.80;;;;110576;1253;41307;-66
2022/06/24 09:32:27;;;;;;;1.60;1.20;;;;;33.12;97331.00;;;;110613;1253;41302;-66
2022/06/24 09:35:09;;;;;;;1.30;1.20;;;;;34.00;97322.40;;;;110562;1253;42268;-67
2022/06/24 09:37:41;;;;;;;3.00;1.10;;;;;34.72;97323.00;;;;110534;1253;41271;-66
2022/06/24 09:40:31;;;;;;;2.70;1.30;;;;;35.08;97314.00;;;;110531;1253;41218;-67
2022/06/24 09:43:03;;;;;;;1.70;1.20;;;;;34.88;97314.20;;;;110480;1253;41319;-68
2022/06/24 09:45:52;;;;;;;2.60;1.10;;;;;34.86;97309.40;;;;110410;1254;41432;-66
2022/06/24 09:48:35;;;;;;;3.00;1.30;;;;;34.40;97305.60;;;;110445;1254;41457;-66
2022/06/24 09:51:07;;;;;;;2.10;1.10;;;;;34.00;97306.20;;;;110479;1253;41565;-66
2022/06/24 09:53:40;;;;;;;1.60;1.10;;;;;34.06;97305.00;;;;110548;1254;42000;-67
2022/06/24 09:56:10;;;;;;;2.00;1.20;;;;;34.40;97303.00;;;;110590;1254;41150;-67
2022/06/24 09:58:42;;;;;;;1.50;1.10;;;;;34.80;97304.40;;;;110510;1256;41342;-67
2022/06/24 10:01:11;;;;;;;1.80;1.20;;;;;35.18;97305.20;;;;110649;1254;41171;-68
2022/06/24 10:03:40;;;;;;;1.70;1.00;;;;;35.50;97303.00;;;;110607;1254;41140;-67
2022/06/24 10:06:09;;;;;;;4.90;1.10;;;;;35.70;97296.80;;;;110371;1254;41165;-67
2022/06/24 10:08:40;;;;;;;3.00;1.10;;;;;36.02;97299.20;;;;110303;1256;42127;-67
2022/06/24 10:11:33;;;;;;;1.60;0.90;;;;;36.60;97299.00;;;;110394;1254;41572;-67
2022/06/24 10:14:02;;;;;;;5.30;1.10;;;;;36.34;97299.00;;;;110398;1253;41450;-67
2022/06/24 10:16:32;;;;;;;1.40;1.10;;;;;36.04;97296.80;;;;110472;1254;41144;-67
2022/06/24 10:19:03;;;;;;;3.90;1.30;;;;;36.10;97296.60;;;;110536;1253;41275;-67
2022/06/24 10:21:32;;;;;;;2.10;1.10;;;;;35.90;97305.60;;;;110586;1254;41165;-68
2022/06/24 10:24:12;;;;;;;0.80;0.80;;;;;35.80;97299.00;;;;110521;1254;41262;-68
2022/06/24 10:26:55;;;;;;;6.00;1.30;;;;;36.00;97299.20;;;;110695;1254;41251;-67
2022/06/24 10:29:28;;;;;;;1.40;0.90;;;;;36.00;97286.80;;;;110615;1254;41156;-68
2022/06/24 10:32:02;;;;;;;1.80;1.10;;;;;35.70;97286.00;;;;110447;1255;41442;-66
2022/06/24 10:34:36;;;;;;;3.50;1.20;;;;;35.80;97280.80;;;;110637;1253;41746;-67
2022/06/24 10:37:12;;;;;;;4.60;1.20;;;;;35.50;97276.00;;;;110562;1254;41627;-67
2022/06/24 10:39:49;;;;;;;2.50;1.30;;;;;34.50;97273.80;;;;110524;1253;40943;-68
2022/06/24 10:42:20;;;;;;;2.20;1.30;;;;;33.66;97272.60;;;;110489;1254;41681;-68
2022/06/24 10:45:03;;;;;;;3.50;1.20;;;;;33.40;97268.80;;;;110411;1254;41259;-68
2022/06/24 10:47:36;;;;;;;1.50;1.10;;;;;33.16;97276.60;;;;110598;1253;41193;-69
2022/06/24 10:50:06;;;;;;;2.20;1.20;;;;;33.10;97272.80;;;;110432;1256;42044;-68
2022/06/24 10:52:55;;;;;;;3.20;1.30;;;;;33.16;97272.60;;;;110530;1254;41347;-68
2022/06/24 10:55:28;;;;;;;3.30;1.10;;;;;32.90;97276.60;;;;110506;1254;41146;-68
2022/06/24 10:58:00;;;;;;;3.00;1.30;;;;;32.50;97276.80;;;;110593;1255;41254;-68
2022/06/24 11:00:48;;;;;;;3.00;1.20;;;;;32.50;97271.80;;;;110570;1254;41705;-68
2022/06/24 11:03:24;;;;;;;2.20;1.30;;;;;32.64;97267.80;;;;110690;1255;41887;-68
2022/06/24 11:05:53;;;;;;;3.00;1.10;;;;;33.00;97267.60;;;;110530;1254;41179;-68
2022/06/24 11:08:24;;;;;;;4.30;1.10;;;;;32.70;97267.40;;;;110431;1254;41308;-68
2022/06/24 11:10:54;;;;;;;2.30;1.20;;;;;32.60;97265.60;;;;110633;1254;42291;-69
2022/06/24 11:13:24;;;;;;;;;;;;;32.30;97265.00;;;;110496;1254;41199;-67
2022/06/24 11:15:55;;;;;;;1.80;1.00;;;;;32.02;97264.00;;;;110477;1254;41611;-66
2022/06/24 11:18:30;;;;;;;3.00;1.30;;;;;31.90;97263.00;;;;110472;1254;41153;-68
2022/06/24 11:21:03;;;;;;;4.90;1.30;;;;;31.60;97263.40;;;;110548;1254;41159;-69
2022/06/24 11:23:34;;;;;;;1.70;1.20;;;;;31.74;97247.20;;;;110568;1253;41160;-68
2022/06/24 11:26:10;;;;;;;1.70;1.20;;;;;32.82;97248.40;;;;110537;1253;41198;-67
2022/06/24 11:28:40;;;;;;;2.00;1.20;;;;;34.18;97235.00;;;;110625;1253;41253;-67
2022/06/24 11:31:15;;;;;;;;;;;;;35.04;97232.40;;;;110555;1254;41559;-67
2022/06/24 11:33:45;;;;;;;2.90;1.20;;;;;36.00;97234.60;;;;110369;1255;41444;-68
2022/06/24 11:36:15;;;;;;;1.10;1.00;;;;;37.34;97234.60;;;;110662;1253;41266;-66
2022/06/24 11:38:54;;;;;;;3.00;1.30;;;;;38.04;97231.20;;;;110461;1253;41946;-68
2022/06/24 11:41:33;;;;;;;1.70;1.10;;;;;38.10;97226.80;;;;110587;1254;41158;-67
2022/06/24 11:44:35;;;;;;;1.10;1.00;;;;;37.36;97242.20;;;;110691;1253;42205;-68
2022/06/24 11:47:06;;;;;;;2.10;1.00;;;;;35.70;97245.20;;;;110596;1253;42468;-67
2022/06/24 11:49:37;;;;;;;2.60;1.00;;;;;35.60;97244.80;;;;110802;1252;41490;-66
2022/06/24 11:52:06;;;;;;;1.40;1.10;;;;;35.04;97240.80;;;;110633;1253;41568;-67
2022/06/24 11:54:36;;;;;;;1.40;0.80;;;;;34.48;97244.60;;;;110645;1252;41386;-68
2022/06/24 11:57:09;;;;;;;1.50;0.90;;;;;34.10;97245.00;;;;110538;1252;41960;-67
2022/06/24 11:59:39;;;;;;;1.50;1.10;;;;;33.90;97244.20;;;;110721;1253;41815;-69
2022/06/24 12:02:11;;;;;;;3.50;1.10;;;;;33.70;97242.80;;;;110620;1254;42261;-70
2022/06/24 12:04:41;;;;;;;2.80;1.20;;;;;33.50;97242.60;;;;110700;1252;41286;-69
2022/06/24 12:07:09;;;;;;;;;;;;;33.48;97242.60;;;;110592;1253;41860;-67
2022/06/24 12:09:39;;;;;;;4.50;1.60;;;;;33.30;97240.80;;;;110713;1252;41270;-67
2022/06/24 12:12:14;;;;;;;2.00;1.20;;;;;33.20;97241.80;;;;110578;1254;42386;-68
2022/06/24 12:14:53;;;;;;;3.00;1.40;;;;;33.22;97236.80;;;;110621;1254;41322;-68
2022/06/24 12:17:22;;;;;;;;;;;;;33.38;97233.00;;;;110642;1253;41467;-66
2022/06/24 12:19:58;;;;;;;3.50;1.20;;;;;32.54;97233.20;;;;110651;1252;41138;-68
2022/06/24 12:22:28;;;;;;;1.90;1.20;;;;;32.44;97229.00;;;;110508;1253;41275;-68
2022/06/24 12:25:04;;;;;;;;;;;;;31.08;97232.80;;;;110522;1253;41299;-67
2022/06/24 12:28:23;;;;;;;5.10;1.30;;;;;30.20;97233.40;;;;110556;1253;42186;-66
2022/06/24 12:31:08;;;;;;;1.50;1.10;;;;;31.00;97233.00;;;;110458;1254;41433;-67
2022/06/24 12:33:57;;;;;;;3.30;1.30;;;;;31.02;97235.20;;;;110490;1251;41330;-67
2022/06/24 12:36:41;;;;;;;2.60;1.60;;;;;30.90;97228.00;;;;110580;1253;42046;-67
2022/06/24 12:39:11;;;;;;;2.50;1.30;;;;;30.98;97228.40;;;;110656;1253;41193;-68
2022/06/24 12:41:46;;;;;;;2.30;1.40;;;;;30.90;97228.00;;;;110722;1253;41182;-68
2022/06/24 12:44:16;;;;;;;1.30;1.20;;;;;30.60;97228.80;;;;110674;1253;41865;-67